TAP1706 LPMA-LPPR
Flight info
| Callsign | TAP1706 |
|---|---|
| Flight time | 1h 35m |
| Altitude | 36000 |
| Route | DEGUN DCT VABEM DCT ASMAR DCT DIRMA DCT ASMOV |
| Aircraft | A320/M-SDE3FGHIRWY/LB1 |
Departure
| Time | 2026-05-03 22:18 |
|---|---|
| Airport | Cristiano Ronaldo International Airport (LPMA) |
Arrival
| Time | 2026-05-03 23:53 |
|---|---|
| Airport | Francisco de Sá Carneiro Airport (LPPR) |
| Time | Latitude | Longitude | Altitude | Speed | Heading |
|---|---|---|---|---|---|
| 2026-05-03 21:52 | 32.69333 | -16.77693 | 170 ft | 0 kts | 138° |
| 2026-05-03 22:10 | 32.69333 | -16.77694 | 169 ft | 1 kts | 138° |
| 2026-05-03 22:10 | 32.69351 | -16.77712 | 142 ft | 4 kts | 146° |
| 2026-05-03 22:10 | 32.69375 | -16.77727 | 169 ft | 4 kts | 169° |
| 2026-05-03 22:10 | 32.69396 | -16.77724 | 169 ft | 2 kts | 225° |
| 2026-05-03 22:11 | 32.69397 | -16.77723 | 169 ft | 0 kts | 226° |
| 2026-05-03 22:14 | 32.69395 | -16.77725 | 169 ft | 1 kts | 226° |
| 2026-05-03 22:14 | 32.69375 | -16.77750 | 169 ft | 5 kts | 226° |
| 2026-05-03 22:14 | 32.69354 | -16.77776 | 169 ft | 5 kts | 226° |
| 2026-05-03 22:14 | 32.69331 | -16.77804 | 169 ft | 4 kts | 226° |
| 2026-05-03 22:15 | 32.69302 | -16.77843 | 169 ft | 9 kts | 231° |
| 2026-05-03 22:15 | 32.69289 | -16.77937 | 169 ft | 15 kts | 272° |
| 2026-05-03 22:15 | 32.69258 | -16.78066 | 168 ft | 18 kts | 224° |
| 2026-05-03 22:15 | 32.69144 | -16.78195 | 162 ft | 27 kts | 224° |
| 2026-05-03 22:16 | 32.69006 | -16.78357 | 154 ft | 24 kts | 224° |
| 2026-05-03 22:16 | 32.68908 | -16.78410 | 153 ft | 10 kts | 198° |
| 2026-05-03 22:16 | 32.68897 | -16.78467 | 153 ft | 7 kts | 322° |
| 2026-05-03 22:16 | 32.68933 | -16.78446 | 153 ft | 5 kts | 45° |
| 2026-05-03 22:17 | 32.68935 | -16.78443 | 153 ft | 4 kts | 45° |
| 2026-05-03 22:17 | 32.69116 | -16.78232 | 160 ft | 74 kts | 45° |
| 2026-05-03 22:17 | 32.69635 | -16.77624 | 178 ft | 134 kts | 45° |
| 2026-05-03 22:18 | 32.70392 | -16.76731 | 333 ft | 165 kts | 45° |
| 2026-05-03 22:18 | 32.71123 | -16.75693 | 988 ft | 165 kts | 63° |
| 2026-05-03 22:18 | 32.71378 | -16.74372 | 1562 ft | 171 kts | 96° |
| 2026-05-03 22:18 | 32.70998 | -16.72956 | 1858 ft | 192 kts | 113° |
| 2026-05-03 22:19 | 32.70463 | -16.71400 | 2150 ft | 216 kts | 113° |
| 2026-05-03 22:19 | 32.69867 | -16.69651 | 2505 ft | 241 kts | 112° |
| 2026-05-03 22:19 | 32.69214 | -16.67713 | 3017 ft | 262 kts | 112° |
| 2026-05-03 22:19 | 32.68531 | -16.65677 | 3818 ft | 269 kts | 112° |
| 2026-05-03 22:20 | 32.67843 | -16.63629 | 4706 ft | 273 kts | 112° |
| 2026-05-03 22:20 | 32.67135 | -16.61514 | 5549 ft | 279 kts | 112° |
| 2026-05-03 22:20 | 32.66412 | -16.59352 | 6401 ft | 284 kts | 112° |
| 2026-05-03 22:20 | 32.65899 | -16.57071 | 7193 ft | 290 kts | 95° |
| 2026-05-03 22:21 | 32.66053 | -16.54682 | 7992 ft | 294 kts | 74° |
| 2026-05-03 22:21 | 32.66889 | -16.52473 | 8800 ft | 296 kts | 53° |
| 2026-05-03 22:21 | 32.68276 | -16.50668 | 9622 ft | 298 kts | 41° |
| 2026-05-03 22:21 | 32.69789 | -16.48958 | 10368 ft | 305 kts | 41° |
| 2026-05-03 22:22 | 32.71364 | -16.47183 | 10644 ft | 328 kts | 41° |
| 2026-05-03 22:22 | 32.73064 | -16.45261 | 11047 ft | 344 kts | 41° |
| 2026-05-03 22:22 | 32.74812 | -16.43273 | 11700 ft | 351 kts | 41° |
| 2026-05-03 22:22 | 32.76577 | -16.41254 | 12417 ft | 355 kts | 41° |
| 2026-05-03 22:23 | 32.78369 | -16.39199 | 13152 ft | 360 kts | 41° |
| 2026-05-03 22:23 | 32.80178 | -16.37122 | 13853 ft | 364 kts | 41° |
| 2026-05-03 22:23 | 32.82015 | -16.35015 | 14477 ft | 369 kts | 41° |
| 2026-05-03 22:23 | 32.83873 | -16.32887 | 15081 ft | 373 kts | 41° |
| 2026-05-03 22:24 | 32.85755 | -16.30731 | 15682 ft | 378 kts | 41° |
| 2026-05-03 22:24 | 32.87637 | -16.28574 | 16270 ft | 383 kts | 41° |
| 2026-05-03 22:24 | 32.89563 | -16.26366 | 16860 ft | 387 kts | 41° |
| 2026-05-03 22:24 | 32.91517 | -16.24125 | 17447 ft | 392 kts | 40° |
| 2026-05-03 22:25 | 32.93493 | -16.21860 | 18038 ft | 397 kts | 40° |
| 2026-05-03 22:25 | 32.95488 | -16.19567 | 18580 ft | 401 kts | 40° |
| 2026-05-03 22:25 | 32.97504 | -16.17246 | 19105 ft | 405 kts | 40° |
| 2026-05-03 22:25 | 32.99540 | -16.14903 | 19616 ft | 409 kts | 40° |
| 2026-05-03 22:26 | 33.01594 | -16.12539 | 20143 ft | 413 kts | 40° |
| 2026-05-03 22:26 | 33.03640 | -16.10181 | 20652 ft | 417 kts | 40° |
| 2026-05-03 22:26 | 33.05731 | -16.07771 | 21174 ft | 420 kts | 40° |
| 2026-05-03 22:26 | 33.07843 | -16.05338 | 21700 ft | 424 kts | 40° |
| 2026-05-03 22:27 | 33.09971 | -16.02882 | 22221 ft | 428 kts | 40° |
| 2026-05-03 22:27 | 33.12114 | -16.00402 | 22729 ft | 431 kts | 40° |
| 2026-05-03 22:27 | 33.14278 | -15.97893 | 23243 ft | 435 kts | 40° |
| 2026-05-03 22:27 | 33.16457 | -15.95369 | 23738 ft | 439 kts | 40° |
| 2026-05-03 22:28 | 33.18657 | -15.92825 | 24136 ft | 442 kts | 40° |
| 2026-05-03 22:28 | 33.20873 | -15.90261 | 24537 ft | 446 kts | 40° |
| 2026-05-03 22:28 | 33.23107 | -15.87676 | 24926 ft | 449 kts | 40° |
| 2026-05-03 22:28 | 33.25355 | -15.85069 | 25301 ft | 452 kts | 40° |
| 2026-05-03 22:29 | 33.27590 | -15.82472 | 25663 ft | 456 kts | 40° |
| 2026-05-03 22:29 | 33.29868 | -15.79820 | 26029 ft | 459 kts | 39° |
| 2026-05-03 22:29 | 33.32160 | -15.77151 | 26385 ft | 462 kts | 39° |
| 2026-05-03 22:29 | 33.34468 | -15.74463 | 26731 ft | 465 kts | 39° |
| 2026-05-03 22:30 | 33.36783 | -15.71740 | 27076 ft | 468 kts | 40° |
| 2026-05-03 22:30 | 33.39110 | -15.68991 | 27415 ft | 472 kts | 40° |
| 2026-05-03 22:30 | 33.41447 | -15.66218 | 27762 ft | 475 kts | 40° |
| 2026-05-03 22:30 | 33.43796 | -15.63422 | 28092 ft | 478 kts | 40° |
| 2026-05-03 22:31 | 33.46124 | -15.60642 | 28416 ft | 481 kts | 40° |
| 2026-05-03 22:31 | 33.48497 | -15.57801 | 28736 ft | 484 kts | 40° |
| 2026-05-03 22:31 | 33.50877 | -15.54942 | 29053 ft | 487 kts | 40° |
| 2026-05-03 22:31 | 33.53273 | -15.52054 | 29358 ft | 489 kts | 40° |
| 2026-05-03 22:32 | 33.55676 | -15.49148 | 29664 ft | 492 kts | 40° |
| 2026-05-03 22:32 | 33.58091 | -15.46221 | 29955 ft | 495 kts | 40° |
| 2026-05-03 22:32 | 33.60519 | -15.43271 | 30229 ft | 498 kts | 40° |
| 2026-05-03 22:32 | 33.62957 | -15.40301 | 30477 ft | 501 kts | 40° |
| 2026-05-03 22:33 | 33.65372 | -15.37361 | 30717 ft | 503 kts | 40° |
| 2026-05-03 22:33 | 33.67941 | -15.34545 | 30953 ft | 496 kts | 29° |
| 2026-05-03 22:33 | 33.70828 | -15.32329 | 31179 ft | 493 kts | 24° |
| 2026-05-03 22:33 | 33.73761 | -15.30173 | 31409 ft | 495 kts | 24° |
| 2026-05-03 22:34 | 33.76700 | -15.28012 | 31670 ft | 495 kts | 24° |
| 2026-05-03 22:34 | 33.79637 | -15.25852 | 32006 ft | 495 kts | 24° |
| 2026-05-03 22:34 | 33.82571 | -15.23696 | 32329 ft | 494 kts | 24° |
| 2026-05-03 22:34 | 33.85501 | -15.21541 | 32641 ft | 494 kts | 24° |
| 2026-05-03 22:35 | 33.88428 | -15.19382 | 32965 ft | 493 kts | 24° |
| 2026-05-03 22:35 | 33.91314 | -15.17245 | 33269 ft | 493 kts | 24° |
| 2026-05-03 22:35 | 33.94233 | -15.15080 | 33588 ft | 493 kts | 24° |
| 2026-05-03 22:35 | 33.97150 | -15.12918 | 33909 ft | 492 kts | 24° |
| 2026-05-03 22:36 | 34.00066 | -15.10759 | 34209 ft | 492 kts | 24° |
| 2026-05-03 22:36 | 34.02985 | -15.08600 | 34486 ft | 491 kts | 24° |
| 2026-05-03 22:36 | 34.05897 | -15.06446 | 34776 ft | 490 kts | 24° |
| 2026-05-03 22:36 | 34.08797 | -15.04295 | 35059 ft | 489 kts | 24° |
| 2026-05-03 22:37 | 34.11694 | -15.02142 | 35331 ft | 488 kts | 24° |
| 2026-05-03 22:37 | 34.14585 | -14.99995 | 35603 ft | 487 kts | 24° |
| 2026-05-03 22:37 | 34.17468 | -14.97854 | 35866 ft | 486 kts | 24° |
| 2026-05-03 22:37 | 34.20309 | -14.95740 | 36088 ft | 486 kts | 24° |
| 2026-05-03 22:38 | 34.23176 | -14.93604 | 36156 ft | 482 kts | 25° |
| 2026-05-03 22:38 | 34.28856 | -14.89361 | 36161 ft | 479 kts | 25° |
| 2026-05-03 22:39 | 34.34513 | -14.85134 | 36161 ft | 477 kts | 25° |
| 2026-05-03 22:39 | 34.40164 | -14.80910 | 36164 ft | 477 kts | 25° |
| 2026-05-03 22:40 | 34.45760 | -14.76711 | 36163 ft | 476 kts | 25° |
| 2026-05-03 22:40 | 34.51390 | -14.72478 | 36169 ft | 476 kts | 25° |
| 2026-05-03 22:41 | 34.57023 | -14.68258 | 36179 ft | 476 kts | 25° |
| 2026-05-03 22:41 | 34.62650 | -14.64030 | 36181 ft | 475 kts | 25° |
| 2026-05-03 22:42 | 34.68229 | -14.59820 | 36194 ft | 475 kts | 25° |
| 2026-05-03 22:42 | 34.73836 | -14.55585 | 36193 ft | 475 kts | 26° |
| 2026-05-03 22:43 | 34.79440 | -14.51341 | 36197 ft | 474 kts | 26° |
| 2026-05-03 22:43 | 34.85038 | -14.47099 | 36195 ft | 473 kts | 26° |
| 2026-05-03 22:44 | 34.90586 | -14.42888 | 36197 ft | 473 kts | 26° |
| 2026-05-03 22:44 | 34.96163 | -14.38658 | 36188 ft | 472 kts | 26° |
| 2026-05-03 22:45 | 35.01733 | -14.34407 | 36194 ft | 472 kts | 26° |
| 2026-05-03 22:45 | 35.07295 | -14.30149 | 36196 ft | 471 kts | 26° |
| 2026-05-03 22:46 | 35.12847 | -14.25899 | 36196 ft | 471 kts | 26° |
| 2026-05-03 22:46 | 35.18365 | -14.21681 | 36194 ft | 471 kts | 26° |
| 2026-05-03 22:47 | 35.23911 | -14.17432 | 36195 ft | 471 kts | 26° |
| 2026-05-03 22:47 | 35.29457 | -14.13169 | 36197 ft | 471 kts | 26° |
| 2026-05-03 22:48 | 35.35003 | -14.08911 | 36198 ft | 470 kts | 26° |
| 2026-05-03 22:48 | 35.40510 | -14.04687 | 36196 ft | 470 kts | 26° |
| 2026-05-03 22:49 | 35.46048 | -14.00402 | 36188 ft | 473 kts | 26° |
| 2026-05-03 22:49 | 35.51623 | -13.96087 | 36159 ft | 475 kts | 26° |
| 2026-05-03 22:50 | 35.57223 | -13.91756 | 36152 ft | 476 kts | 26° |
| 2026-05-03 22:50 | 35.62794 | -13.87436 | 36158 ft | 478 kts | 26° |
| 2026-05-03 22:51 | 35.68413 | -13.83064 | 36160 ft | 478 kts | 26° |
| 2026-05-03 22:51 | 35.74044 | -13.78681 | 36164 ft | 479 kts | 26° |
| 2026-05-03 22:52 | 35.79680 | -13.74285 | 36170 ft | 480 kts | 26° |
| 2026-05-03 22:52 | 35.85285 | -13.69913 | 36176 ft | 480 kts | 26° |
| 2026-05-03 22:53 | 35.90925 | -13.65504 | 36180 ft | 480 kts | 26° |
| 2026-05-03 22:53 | 35.96575 | -13.61078 | 36184 ft | 481 kts | 26° |
| 2026-05-03 22:54 | 36.02221 | -13.56642 | 36188 ft | 481 kts | 26° |
| 2026-05-03 22:54 | 36.07876 | -13.52200 | 36192 ft | 482 kts | 26° |
| 2026-05-03 22:55 | 36.13487 | -13.47774 | 36194 ft | 482 kts | 26° |
| 2026-05-03 22:55 | 36.19133 | -13.43313 | 36191 ft | 481 kts | 26° |
| 2026-05-03 22:56 | 36.24783 | -13.38859 | 36193 ft | 481 kts | 26° |
| 2026-05-03 22:56 | 36.30425 | -13.34397 | 36193 ft | 481 kts | 26° |
| 2026-05-03 22:57 | 36.36060 | -13.29933 | 36189 ft | 481 kts | 26° |
| 2026-05-03 22:57 | 36.41657 | -13.25486 | 36190 ft | 481 kts | 26° |
| 2026-05-03 22:58 | 36.47284 | -13.20993 | 36191 ft | 481 kts | 26° |
| 2026-05-03 22:58 | 36.52912 | -13.16509 | 36194 ft | 481 kts | 26° |
| 2026-05-03 22:59 | 36.58538 | -13.12012 | 36194 ft | 481 kts | 26° |
| 2026-05-03 22:59 | 36.64127 | -13.07547 | 36197 ft | 481 kts | 26° |
| 2026-05-03 23:00 | 36.69749 | -13.03044 | 36197 ft | 481 kts | 26° |
| 2026-05-03 23:00 | 36.75371 | -12.98532 | 36190 ft | 480 kts | 26° |
| 2026-05-03 23:01 | 36.80983 | -12.94011 | 36185 ft | 480 kts | 26° |
| 2026-05-03 23:01 | 36.86557 | -12.89525 | 36182 ft | 480 kts | 26° |
| 2026-05-03 23:02 | 36.92163 | -12.85004 | 36187 ft | 480 kts | 26° |
| 2026-05-03 23:02 | 36.97761 | -12.80464 | 36186 ft | 479 kts | 26° |
| 2026-05-03 23:03 | 37.03354 | -12.75934 | 36193 ft | 479 kts | 26° |
| 2026-05-03 23:03 | 37.08004 | -12.72173 | 36187 ft | 479 kts | 26° |
| 2026-05-03 23:04 | 37.14501 | -12.66903 | 36184 ft | 479 kts | 26° |
| 2026-05-03 23:04 | 37.20083 | -12.62358 | 36185 ft | 478 kts | 26° |
| 2026-05-03 23:05 | 37.25657 | -12.57785 | 36182 ft | 478 kts | 26° |
| 2026-05-03 23:05 | 37.30287 | -12.53994 | 36171 ft | 478 kts | 26° |
| 2026-05-03 23:06 | 37.35860 | -12.49444 | 36168 ft | 478 kts | 26° |
| 2026-05-03 23:06 | 37.42334 | -12.44147 | 36167 ft | 478 kts | 26° |
| 2026-05-03 23:07 | 37.46963 | -12.40351 | 36167 ft | 478 kts | 26° |
| 2026-05-03 23:07 | 37.52525 | -12.35769 | 36170 ft | 478 kts | 26° |
| 2026-05-03 23:08 | 37.58985 | -12.30430 | 36165 ft | 478 kts | 26° |
| 2026-05-03 23:08 | 37.64550 | -12.25847 | 36167 ft | 478 kts | 26° |
| 2026-05-03 23:09 | 37.69171 | -12.22022 | 36164 ft | 478 kts | 26° |
| 2026-05-03 23:09 | 37.74733 | -12.17413 | 36164 ft | 478 kts | 26° |
| 2026-05-03 23:10 | 37.80291 | -12.12794 | 36164 ft | 478 kts | 26° |
| 2026-05-03 23:10 | 37.85850 | -12.08173 | 36165 ft | 478 kts | 27° |
| 2026-05-03 23:11 | 37.91405 | -12.03538 | 36170 ft | 478 kts | 27° |
| 2026-05-03 23:11 | 37.96922 | -11.98933 | 36171 ft | 478 kts | 27° |
| 2026-05-03 23:12 | 38.02468 | -11.94292 | 36170 ft | 478 kts | 27° |
| 2026-05-03 23:12 | 38.08017 | -11.89648 | 36165 ft | 477 kts | 27° |
| 2026-05-03 23:13 | 38.13560 | -11.84995 | 36163 ft | 478 kts | 27° |
| 2026-05-03 23:13 | 38.19097 | -11.80335 | 36160 ft | 478 kts | 27° |
| 2026-05-03 23:14 | 38.24598 | -11.75694 | 36163 ft | 477 kts | 27° |
| 2026-05-03 23:14 | 38.30130 | -11.71034 | 36163 ft | 477 kts | 27° |
| 2026-05-03 23:15 | 38.35660 | -11.66357 | 36160 ft | 477 kts | 27° |
| 2026-05-03 23:15 | 38.41188 | -11.61661 | 36163 ft | 477 kts | 27° |
| 2026-05-03 23:16 | 38.46675 | -11.56997 | 36153 ft | 477 kts | 28° |
| 2026-05-03 23:16 | 38.52191 | -11.52294 | 36157 ft | 477 kts | 28° |
| 2026-05-03 23:17 | 38.57711 | -11.47604 | 36153 ft | 476 kts | 28° |
| 2026-05-03 23:17 | 38.63219 | -11.42909 | 36153 ft | 476 kts | 28° |
| 2026-05-03 23:18 | 38.68728 | -11.38205 | 36149 ft | 476 kts | 28° |
| 2026-05-03 23:18 | 38.74195 | -11.33510 | 36151 ft | 476 kts | 28° |
| 2026-05-03 23:19 | 38.79691 | -11.28785 | 36150 ft | 476 kts | 28° |
| 2026-05-03 23:19 | 38.85189 | -11.24062 | 36150 ft | 476 kts | 28° |
| 2026-05-03 23:20 | 38.90684 | -11.19330 | 36145 ft | 475 kts | 28° |
| 2026-05-03 23:20 | 38.96134 | -11.14616 | 36147 ft | 475 kts | 28° |
| 2026-05-03 23:21 | 39.01618 | -11.09871 | 36145 ft | 475 kts | 28° |
| 2026-05-03 23:21 | 39.07095 | -11.05129 | 36144 ft | 475 kts | 29° |
| 2026-05-03 23:22 | 39.15280 | -10.98022 | 36143 ft | 475 kts | 29° |
| 2026-05-03 23:22 | 39.20751 | -10.93255 | 36139 ft | 475 kts | 29° |
| 2026-05-03 23:23 | 39.26222 | -10.88481 | 36133 ft | 475 kts | 29° |
| 2026-05-03 23:23 | 39.31687 | -10.83706 | 36131 ft | 475 kts | 29° |
| 2026-05-03 23:24 | 39.37115 | -10.78949 | 36131 ft | 474 kts | 30° |
| 2026-05-03 23:24 | 39.42575 | -10.74149 | 36127 ft | 474 kts | 30° |
| 2026-05-03 23:25 | 39.48034 | -10.69350 | 36131 ft | 474 kts | 30° |
| 2026-05-03 23:25 | 39.53492 | -10.64545 | 36131 ft | 474 kts | 30° |
| 2026-05-03 23:26 | 39.58944 | -10.59728 | 36131 ft | 474 kts | 30° |
| 2026-05-03 23:26 | 39.64361 | -10.54938 | 36128 ft | 474 kts | 30° |
| 2026-05-03 23:27 | 39.69806 | -10.50085 | 36103 ft | 476 kts | 31° |
| 2026-05-03 23:27 | 39.75265 | -10.45209 | 36113 ft | 476 kts | 30° |
| 2026-05-03 23:28 | 39.80730 | -10.40364 | 36119 ft | 475 kts | 30° |
| 2026-05-03 23:28 | 39.86151 | -10.35547 | 36126 ft | 475 kts | 30° |
| 2026-05-03 23:29 | 39.91602 | -10.30693 | 36127 ft | 475 kts | 31° |
| 2026-05-03 23:29 | 39.97044 | -10.25826 | 36123 ft | 474 kts | 31° |
| 2026-05-03 23:30 | 40.02483 | -10.20947 | 36116 ft | 474 kts | 31° |
| 2026-05-03 23:30 | 40.05200 | -10.18506 | 35887 ft | 474 kts | 31° |
| 2026-05-03 23:30 | 40.07913 | -10.16066 | 35637 ft | 473 kts | 31° |
| 2026-05-03 23:31 | 40.10614 | -10.13634 | 35091 ft | 471 kts | 31° |
| 2026-05-03 23:31 | 40.13277 | -10.11238 | 34516 ft | 470 kts | 31° |
| 2026-05-03 23:31 | 40.15966 | -10.08817 | 33899 ft | 469 kts | 31° |
| 2026-05-03 23:31 | 40.18647 | -10.06399 | 33297 ft | 467 kts | 31° |
| 2026-05-03 23:32 | 40.21307 | -10.03992 | 32727 ft | 464 kts | 31° |
| 2026-05-03 23:32 | 40.23953 | -10.01594 | 32137 ft | 461 kts | 31° |
| 2026-05-03 23:32 | 40.26588 | -9.99205 | 31573 ft | 459 kts | 31° |
| 2026-05-03 23:32 | 40.28943 | -9.97072 | 31067 ft | 457 kts | 31° |
| 2026-05-03 23:33 | 40.31551 | -9.94708 | 30512 ft | 455 kts | 31° |
| 2026-05-03 23:33 | 40.34150 | -9.92352 | 29913 ft | 454 kts | 31° |
| 2026-05-03 23:33 | 40.36700 | -9.90036 | 29380 ft | 449 kts | 31° |
| 2026-05-03 23:33 | 40.39255 | -9.87711 | 28849 ft | 445 kts | 31° |
| 2026-05-03 23:34 | 40.41786 | -9.85406 | 28335 ft | 440 kts | 31° |
| 2026-05-03 23:34 | 40.44292 | -9.83126 | 27834 ft | 436 kts | 31° |
| 2026-05-03 23:34 | 40.46771 | -9.80870 | 27343 ft | 432 kts | 31° |
| 2026-05-03 23:34 | 40.49229 | -9.78631 | 26848 ft | 428 kts | 32° |
| 2026-05-03 23:35 | 40.51662 | -9.76411 | 26364 ft | 424 kts | 32° |
| 2026-05-03 23:35 | 40.54074 | -9.74205 | 25886 ft | 421 kts | 32° |
| 2026-05-03 23:35 | 40.56435 | -9.72044 | 25381 ft | 418 kts | 32° |
| 2026-05-03 23:35 | 40.58813 | -9.69865 | 24884 ft | 416 kts | 32° |
| 2026-05-03 23:36 | 40.61182 | -9.67692 | 24358 ft | 414 kts | 32° |
| 2026-05-03 23:36 | 40.63539 | -9.65530 | 23889 ft | 411 kts | 32° |
| 2026-05-03 23:36 | 40.65868 | -9.63394 | 23510 ft | 405 kts | 32° |
| 2026-05-03 23:36 | 40.68163 | -9.61288 | 22720 ft | 398 kts | 32° |
| 2026-05-03 23:37 | 40.70391 | -9.59240 | 22226 ft | 382 kts | 32° |
| 2026-05-03 23:37 | 40.72529 | -9.57272 | 21747 ft | 368 kts | 32° |
| 2026-05-03 23:37 | 40.74592 | -9.55372 | 21292 ft | 355 kts | 32° |
| 2026-05-03 23:37 | 40.76562 | -9.53556 | 20859 ft | 348 kts | 32° |
| 2026-05-03 23:38 | 40.78547 | -9.51729 | 20416 ft | 348 kts | 32° |
| 2026-05-03 23:38 | 40.80529 | -9.49902 | 19975 ft | 347 kts | 32° |
| 2026-05-03 23:38 | 40.82509 | -9.48073 | 19540 ft | 347 kts | 32° |
| 2026-05-03 23:38 | 40.84489 | -9.46244 | 19101 ft | 348 kts | 32° |
| 2026-05-03 23:39 | 40.86472 | -9.44410 | 18661 ft | 348 kts | 32° |
| 2026-05-03 23:39 | 40.88454 | -9.42575 | 18213 ft | 348 kts | 32° |
| 2026-05-03 23:39 | 40.90433 | -9.40740 | 17761 ft | 347 kts | 33° |
| 2026-05-03 23:39 | 40.92405 | -9.38909 | 17335 ft | 345 kts | 33° |
| 2026-05-03 23:40 | 40.94278 | -9.36997 | 16908 ft | 346 kts | 43° |
| 2026-05-03 23:40 | 40.95754 | -9.34495 | 16488 ft | 346 kts | 60° |
| 2026-05-03 23:40 | 40.96655 | -9.31550 | 16069 ft | 346 kts | 77° |
| 2026-05-03 23:40 | 40.96913 | -9.28404 | 15644 ft | 344 kts | 91° |
| 2026-05-03 23:41 | 40.96890 | -9.25237 | 15223 ft | 344 kts | 91° |
| 2026-05-03 23:41 | 40.96870 | -9.22080 | 14793 ft | 343 kts | 91° |
| 2026-05-03 23:41 | 40.96853 | -9.18922 | 14380 ft | 343 kts | 91° |
| 2026-05-03 23:41 | 40.96835 | -9.15774 | 13964 ft | 342 kts | 91° |
| 2026-05-03 23:42 | 40.96815 | -9.12667 | 13507 ft | 342 kts | 91° |
| 2026-05-03 23:42 | 40.96793 | -9.09533 | 13079 ft | 339 kts | 91° |
| 2026-05-03 23:42 | 40.96769 | -9.06423 | 12648 ft | 337 kts | 91° |
| 2026-05-03 23:42 | 40.96746 | -9.03330 | 12220 ft | 335 kts | 91° |
| 2026-05-03 23:43 | 40.96721 | -9.00258 | 11792 ft | 333 kts | 91° |
| 2026-05-03 23:43 | 40.96696 | -8.97215 | 11350 ft | 325 kts | 91° |
| 2026-05-03 23:43 | 40.96670 | -8.94286 | 10926 ft | 312 kts | 91° |
| 2026-05-03 23:43 | 40.96644 | -8.91468 | 10500 ft | 301 kts | 90° |
| 2026-05-03 23:44 | 40.96619 | -8.88750 | 10092 ft | 290 kts | 90° |
| 2026-05-03 23:44 | 40.96594 | -8.86158 | 9682 ft | 280 kts | 90° |
| 2026-05-03 23:44 | 40.96566 | -8.83633 | 9308 ft | 269 kts | 90° |
| 2026-05-03 23:44 | 40.96539 | -8.81196 | 8940 ft | 262 kts | 90° |
| 2026-05-03 23:45 | 40.96513 | -8.78785 | 8571 ft | 262 kts | 90° |
| 2026-05-03 23:45 | 40.96490 | -8.76369 | 8181 ft | 263 kts | 90° |
| 2026-05-03 23:45 | 40.96517 | -8.73961 | 7798 ft | 260 kts | 82° |
| 2026-05-03 23:45 | 40.96840 | -8.71650 | 7415 ft | 251 kts | 77° |
| 2026-05-03 23:46 | 40.97177 | -8.69415 | 7028 ft | 244 kts | 77° |
| 2026-05-03 23:46 | 40.97500 | -8.67264 | 6653 ft | 239 kts | 77° |
| 2026-05-03 23:46 | 40.97817 | -8.65134 | 6266 ft | 233 kts | 77° |
| 2026-05-03 23:46 | 40.98399 | -8.63225 | 6006 ft | 217 kts | 49° |
| 2026-05-03 23:47 | 40.99548 | -8.62055 | 5606 ft | 205 kts | 18° |
| 2026-05-03 23:47 | 41.00911 | -8.61852 | 5208 ft | 194 kts | 349° |
| 2026-05-03 23:47 | 41.02203 | -8.62186 | 4877 ft | 186 kts | 347° |
| 2026-05-03 23:47 | 41.03463 | -8.62520 | 4548 ft | 184 kts | 347° |
| 2026-05-03 23:48 | 41.04716 | -8.62857 | 4215 ft | 184 kts | 347° |
| 2026-05-03 23:48 | 41.05950 | -8.63188 | 3883 ft | 183 kts | 347° |
| 2026-05-03 23:48 | 41.07198 | -8.63519 | 3551 ft | 182 kts | 348° |
| 2026-05-03 23:48 | 41.08438 | -8.63844 | 3245 ft | 181 kts | 348° |
| 2026-05-03 23:49 | 41.09668 | -8.64165 | 2929 ft | 180 kts | 348° |
| 2026-05-03 23:49 | 41.10862 | -8.64476 | 2697 ft | 168 kts | 348° |
| 2026-05-03 23:49 | 41.11938 | -8.64756 | 2502 ft | 148 kts | 349° |
| 2026-05-03 23:49 | 41.12907 | -8.65008 | 2307 ft | 138 kts | 349° |
| 2026-05-03 23:50 | 41.13836 | -8.65250 | 2132 ft | 134 kts | 349° |
| 2026-05-03 23:50 | 41.14735 | -8.65483 | 1957 ft | 133 kts | 348° |
| 2026-05-03 23:50 | 41.15637 | -8.65720 | 1786 ft | 132 kts | 348° |
| 2026-05-03 23:50 | 41.16537 | -8.65953 | 1604 ft | 131 kts | 348° |
| 2026-05-03 23:51 | 41.17430 | -8.66186 | 1432 ft | 131 kts | 349° |
| 2026-05-03 23:51 | 41.18327 | -8.66420 | 1257 ft | 131 kts | 348° |
| 2026-05-03 23:51 | 41.19220 | -8.66654 | 1078 ft | 131 kts | 348° |
| 2026-05-03 23:51 | 41.20113 | -8.66887 | 914 ft | 130 kts | 348° |
| 2026-05-03 23:52 | 41.20991 | -8.67118 | 749 ft | 131 kts | 348° |
| 2026-05-03 23:52 | 41.21882 | -8.67351 | 573 ft | 131 kts | 347° |
| 2026-05-03 23:52 | 41.22769 | -8.67596 | 387 ft | 130 kts | 347° |
| 2026-05-03 23:52 | 41.23652 | -8.67826 | 240 ft | 126 kts | 348° |
| 2026-05-03 23:53 | 41.24398 | -8.68018 | 209 ft | 86 kts | 349° |
| 2026-05-03 23:53 | 41.24805 | -8.68125 | 201 ft | 33 kts | 348° |
| 2026-05-03 23:53 | 41.25020 | -8.68179 | 188 ft | 29 kts | 352° |
| 2026-05-03 23:53 | 41.25216 | -8.68230 | 183 ft | 29 kts | 347° |
| 2026-05-03 23:54 | 41.25419 | -8.68290 | 177 ft | 30 kts | 349° |
| 2026-05-03 23:54 | 41.25620 | -8.68337 | 172 ft | 29 kts | 350° |
| 2026-05-03 23:54 | 41.25647 | -8.68340 | 172 ft | 0 kts | 0° |
| 2026-05-03 23:54 | 41.25652 | -8.68340 | 172 ft | 4 kts | 358° |
| 2026-05-03 23:55 | 41.25733 | -8.68367 | 170 ft | 18 kts | 347° |
| 2026-05-03 23:55 | 41.25866 | -8.68405 | 166 ft | 21 kts | 349° |
| 2026-05-03 23:55 | 41.26020 | -8.68441 | 161 ft | 20 kts | 349° |
| 2026-05-03 23:55 | 41.26164 | -8.68493 | 157 ft | 19 kts | 324° |
| 2026-05-03 23:56 | 41.26271 | -8.68604 | 152 ft | 18 kts | 346° |
| 2026-05-03 23:56 | 41.26313 | -8.68544 | 152 ft | 3 kts | 125° |
| 2026-05-03 23:56 | 41.26263 | -8.68505 | 154 ft | 11 kts | 168° |
| 2026-05-03 23:56 | 41.26155 | -8.68475 | 158 ft | 18 kts | 169° |
| 2026-05-03 23:57 | 41.26041 | -8.68448 | 161 ft | 15 kts | 169° |
| 2026-05-03 23:57 | 41.25916 | -8.68405 | 164 ft | 23 kts | 173° |